Choibalsan, Mongolia
Current Conditions -  °F | °C
As of 1:00 PM on Tuesday 23 Dec 2014 (Local Time) from UIAA Reporting Station
Few Clouds Few Clouds  
Wind Chill:   Ceiling: Unl
Heat Index: 12°   Visibility: 6mi
Dew Point:   Wind: 4mph
Humidity: 73%   Direction: NA
Pressure: 30.12"   Gusts: NA
Location:  48.06°N, 114.51°E
Report Text: UIAA 230500Z VRB02MPS 9999 FEW050 M11/M15 Q1020 NOSIG RMKQFE706 29CLRD70
Loading
Personal Weather Stations






























Interactive Weather Map New forecast layout! Learn more

10-Day Weather Forecast

Advertisements
Track Severe Weather on mobile